Time;durP1;ratioP1;P1;durP2;ratioP2;P2;SDS_P1;SDS_P2;PMS_P1;PMS_P2;Temp;Humidity;BMP_temperature;BMP_pressure;BME280_temperature;BME280_humidity;BME280_pressure;Samples;Min_cycle;Max_cycle;Signal;HPM_P1;HPM_P2
2021/08/23 00:00:24;;;;;;;20.47;12.73;;;;;;;;;;4987339;28;20219;-57
2021/08/23 00:02:49;;;;;;;14.52;12.98;;;;;;;;;;4987498;28;21271;-56
2021/08/23 00:05:14;;;;;;;15.57;13.95;;;;;;;;;;4986292;28;20184;-57
2021/08/23 00:07:39;;;;;;;15.50;13.67;;;;;;;;;;4987352;28;20646;-56
2021/08/23 00:10:05;;;;;;;16.55;14.82;;;;;;;;;;4986290;28;20462;-57
2021/08/23 00:12:30;;;;;;;18.35;15.00;;;;;;;;;;4988864;28;20250;-56
2021/08/23 00:14:56;;;;;;;18.13;15.20;;;;;;;;;;4988100;28;20168;-56
2021/08/23 00:17:21;;;;;;;18.08;14.68;;;;;;;;;;4987492;28;20190;-56
2021/08/23 00:19:46;;;;;;;18.10;14.88;;;;;;;;;;4987828;28;20204;-57
2021/08/23 00:24:50;;;;;;;16.83;15.07;;;;;;;;;;4985978;28;20270;-56
2021/08/23 00:27:15;;;;;;;17.15;15.40;;;;;;;;;;4986222;28;20271;-57
2021/08/23 00:29:41;;;;;;;16.70;14.98;;;;;;;;;;4986315;28;20398;-56
2021/08/23 00:32:06;;;;;;;17.67;15.77;;;;;;;;;;4989670;28;20176;-56
2021/08/23 00:34:31;;;;;;;16.13;14.20;;;;;;;;;;4989002;28;20184;-56
2021/08/23 00:36:56;;;;;;;17.30;14.60;;;;;;;;;;4990174;28;20180;-56
2021/08/23 00:39:22;;;;;;;17.42;15.15;;;;;;;;;;4990796;28;20276;-56
2021/08/23 00:41:47;;;;;;;17.20;15.40;;;;;;;;;;4992884;28;20187;-56
2021/08/23 00:44:12;;;;;;;16.38;14.57;;;;;;;;;;4990369;28;20173;-57
2021/08/23 00:46:37;;;;;;;19.63;14.90;;;;;;;;;;4992322;28;20695;-56
2021/08/23 00:49:03;;;;;;;17.17;15.38;;;;;;;;;;4988563;28;20200;-55
2021/08/23 00:51:28;;;;;;;16.73;15.02;;;;;;;;;;4989998;28;20223;-57
2021/08/23 00:53:53;;;;;;;16.30;14.70;;;;;;;;;;4990434;28;20176;-56
2021/08/23 00:56:20;;;;;;;17.73;15.73;;;;;;;;;;4991189;28;20199;-57
2021/08/23 00:58:51;;;;;;;16.63;15.02;;;;;;;;;;4996121;28;20184;-56
2021/08/23 01:01:35;;;;;;;16.08;14.05;;;;;;;;;;4990732;28;20727;-55
2021/08/23 01:04:02;;;;;;;16.50;14.80;;;;;;;;;;4990453;28;20744;-55
2021/08/23 01:06:28;;;;;;;14.73;13.23;;;;;;;;;;4987419;28;20180;-56
2021/08/23 01:08:56;;;;;;;13.60;12.20;;;;;;;;;;4988298;28;20283;-56
2021/08/23 01:11:22;;;;;;;12.30;11.10;;;;;;;;;;4986377;28;20271;-56
2021/08/23 01:13:48;;;;;;;13.68;11.13;;;;;;;;;;4991604;28;20583;-55
2021/08/23 01:16:14;;;;;;;15.15;11.60;;;;;;;;;;4986262;28;20676;-56
2021/08/23 01:18:40;;;;;;;12.45;11.20;;;;;;;;;;4988305;28;20552;-57
2021/08/23 01:21:08;;;;;;;15.90;13.05;;;;;;;;;;4979301;28;20196;-56
2021/08/23 01:23:40;;;;;;;14.93;13.52;;;;;;;;;;4978480;28;20180;-56
2021/08/23 01:26:06;;;;;;;15.55;13.98;;;;;;;;;;4991318;28;20176;-56
2021/08/23 01:28:41;;;;;;;16.20;14.38;;;;;;;;;;4991225;28;20237;-56
2021/08/23 01:31:15;;;;;;;18.23;15.65;;;;;;;;;;4986991;28;20337;-56
2021/08/23 01:33:44;;;;;;;18.67;15.02;;;;;;;;;;4988140;28;20219;-56
2021/08/23 01:36:10;;;;;;;17.60;14.63;;;;;;;;;;4986344;28;20184;-56
2021/08/23 01:38:35;;;;;;;19.35;15.57;;;;;;;;;;4990620;28;20168;-56
2021/08/23 01:41:01;;;;;;;15.85;14.27;;;;;;;;;;4991200;28;20721;-56
2021/08/23 01:43:26;;;;;;;15.68;14.02;;;;;;;;;;4983842;28;20743;-57
2021/08/23 01:45:51;;;;;;;14.65;13.20;;;;;;;;;;4979047;28;20320;-57
2021/08/23 01:48:17;;;;;;;15.70;13.20;;;;;;;;;;4990452;28;20376;-57
2021/08/23 01:50:42;;;;;;;14.13;12.67;;;;;;;;;;4987755;28;20687;-56
2021/08/23 01:53:07;;;;;;;14.43;12.88;;;;;;;;;;4984188;28;20436;-56
2021/08/23 01:55:32;;;;;;;16.13;13.95;;;;;;;;;;4985923;28;20191;-56
2021/08/23 01:57:57;;;;;;;15.18;13.68;;;;;;;;;;4993030;28;20179;-56
2021/08/23 02:00:23;;;;;;;17.17;13.30;;;;;;;;;;4985803;28;20293;-56
2021/08/23 02:02:48;;;;;;;12.43;11.10;;;;;;;;;;4990369;28;20446;-56
2021/08/23 02:05:13;;;;;;;12.88;10.73;;;;;;;;;;4986190;28;20747;-56
2021/08/23 02:07:38;;;;;;;13.50;11.45;;;;;;;;;;4972852;28;20169;-56
2021/08/23 02:10:04;;;;;;;12.97;10.17;;;;;;;;;;4983320;28;20212;-56
2021/08/23 02:12:29;;;;;;;10.93;9.82;;;;;;;;;;4995161;28;20968;-56
2021/08/23 02:14:55;;;;;;;11.27;9.85;;;;;;;;;;4986023;28;20208;-56
2021/08/23 02:17:20;;;;;;;10.80;9.48;;;;;;;;;;4989486;28;20168;-56
2021/08/23 02:19:45;;;;;;;11.98;9.88;;;;;;;;;;4990792;28;20222;-56
2021/08/23 02:22:11;;;;;;;11.30;10.15;;;;;;;;;;4981159;28;20176;-56
2021/08/23 02:24:36;;;;;;;11.30;9.95;;;;;;;;;;4986784;28;20187;-56
2021/08/23 02:27:01;;;;;;;10.55;9.48;;;;;;;;;;4982760;28;20187;-56
2021/08/23 02:29:27;;;;;;;10.57;9.50;;;;;;;;;;4989649;28;20199;-56
2021/08/23 02:31:52;;;;;;;13.63;8.73;;;;;;;;;;4987882;28;20182;-56
2021/08/23 02:34:17;;;;;;;9.82;8.63;;;;;;;;;;4989897;28;20172;-60
2021/08/23 02:36:42;;;;;;;14.85;8.75;;;;;;;;;;4984239;28;20181;-56
2021/08/23 02:39:07;;;;;;;8.90;7.90;;;;;;;;;;4974532;28;20185;-57
2021/08/23 02:41:33;;;;;;;13.43;7.22;;;;;;;;;;4989108;28;20199;-56
2021/08/23 02:43:58;;;;;;;10.23;7.55;;;;;;;;;;4988292;28;20597;-56
2021/08/23 02:46:23;;;;;;;13.00;7.72;;;;;;;;;;4983374;28;20184;-56
2021/08/23 02:48:48;;;;;;;11.68;7.40;;;;;;;;;;4990465;28;20192;-56
2021/08/23 02:51:13;;;;;;;7.70;6.57;;;;;;;;;;4980315;28;20613;-56
2021/08/23 02:53:39;;;;;;;8.50;7.68;;;;;;;;;;4987403;28;20172;-56
2021/08/23 02:56:04;;;;;;;12.05;9.52;;;;;;;;;;4989532;28;20620;-56
2021/08/23 02:58:29;;;;;;;13.32;10.27;;;;;;;;;;4986462;28;20201;-56
2021/08/23 03:00:54;;;;;;;12.15;9.95;;;;;;;;;;4978291;28;20307;-57
2021/08/23 03:03:19;;;;;;;12.68;10.20;;;;;;;;;;4988258;28;20188;-56
2021/08/23 03:05:45;;;;;;;12.13;10.25;;;;;;;;;;4988440;28;20455;-56
2021/08/23 03:08:10;;;;;;;12.38;11.15;;;;;;;;;;4980396;28;20188;-56
2021/08/23 03:10:35;;;;;;;17.75;10.90;;;;;;;;;;4983314;28;20203;-56
2021/08/23 03:13:00;;;;;;;13.40;10.93;;;;;;;;;;4986723;28;20274;-56
2021/08/23 03:15:25;;;;;;;11.23;10.13;;;;;;;;;;4987655;28;20180;-56
2021/08/23 03:17:51;;;;;;;14.13;9.45;;;;;;;;;;4990097;28;20644;-56
2021/08/23 03:20:16;;;;;;;11.57;9.85;;;;;;;;;;4984879;28;20247;-56
2021/08/23 03:22:41;;;;;;;10.70;9.57;;;;;;;;;;4977692;28;20164;-56
2021/08/23 03:25:06;;;;;;;11.05;8.93;;;;;;;;;;4981242;28;20192;-56
2021/08/23 03:27:32;;;;;;;10.23;9.15;;;;;;;;;;4998731;28;20190;-56
2021/08/23 03:29:57;;;;;;;10.82;9.05;;;;;;;;;;4993573;28;20591;-56
2021/08/23 03:32:22;;;;;;;12.13;10.73;;;;;;;;;;4985263;28;20180;-56
2021/08/23 03:34:48;;;;;;;12.20;10.82;;;;;;;;;;4990244;28;20176;-56
2021/08/23 03:37:13;;;;;;;16.10;11.90;;;;;;;;;;4983492;28;20183;-56
2021/08/23 03:39:38;;;;;;;13.88;11.50;;;;;;;;;;4986363;28;20262;-56
2021/08/23 03:42:03;;;;;;;14.27;10.57;;;;;;;;;;4981309;28;20184;-57
2021/08/23 03:44:29;;;;;;;12.50;9.43;;;;;;;;;;4991764;28;20180;-56
2021/08/23 03:46:54;;;;;;;9.38;8.40;;;;;;;;;;4984578;28;20602;-56
2021/08/23 03:49:19;;;;;;;10.15;9.10;;;;;;;;;;4988958;28;20691;-56
2021/08/23 03:51:46;;;;;;;9.45;8.00;;;;;;;;;;4983159;28;20247;-56
2021/08/23 03:54:11;;;;;;;12.38;8.48;;;;;;;;;;4983104;28;20187;-56
2021/08/23 03:56:36;;;;;;;9.95;7.95;;;;;;;;;;4985478;28;20176;-56
2021/08/23 03:59:01;;;;;;;9.70;7.88;;;;;;;;;;4996183;28;20270;-56
2021/08/23 04:01:27;;;;;;;13.65;8.50;;;;;;;;;;4985269;28;20215;-55
2021/08/23 04:03:52;;;;;;;11.60;7.90;;;;;;;;;;4987833;28;20191;-56
2021/08/23 04:06:17;;;;;;;11.75;7.88;;;;;;;;;;4987059;28;20184;-56
2021/08/23 04:08:43;;;;;;;10.20;7.82;;;;;;;;;;4987310;28;20658;-56
2021/08/23 04:11:12;;;;;;;8.88;7.22;;;;;;;;;;4985842;28;20196;-56
2021/08/23 04:13:37;;;;;;;10.85;7.18;;;;;;;;;;4992765;28;20936;-56
2021/08/23 04:16:03;;;;;;;8.25;6.93;;;;;;;;;;4983346;28;20238;-56
2021/08/23 04:18:28;;;;;;;10.55;7.07;;;;;;;;;;4982686;28;20207;-56
2021/08/23 04:20:53;;;;;;;10.82;8.00;;;;;;;;;;4986192;28;20279;-56
2021/08/23 04:23:18;;;;;;;10.65;7.93;;;;;;;;;;4990486;28;20176;-57
2021/08/23 04:25:43;;;;;;;13.75;8.40;;;;;;;;;;4986876;28;20180;-55
2021/08/23 04:28:09;;;;;;;10.15;7.47;;;;;;;;;;4989520;28;20228;-56
2021/08/23 04:30:34;;;;;;;12.32;7.80;;;;;;;;;;4994447;28;20203;-55
2021/08/23 04:32:59;;;;;;;11.15;8.90;;;;;;;;;;4992307;28;20557;-57
2021/08/23 04:35:24;;;;;;;13.80;8.80;;;;;;;;;;4990337;28;20187;-56
2021/08/23 04:37:49;;;;;;;10.75;8.25;;;;;;;;;;4986385;28;20180;-56
2021/08/23 04:40:14;;;;;;;9.52;7.80;;;;;;;;;;4987329;28;20196;-56
2021/08/23 04:42:40;;;;;;;11.27;7.82;;;;;;;;;;4988978;28;20172;-56
2021/08/23 04:45:05;;;;;;;8.25;7.45;;;;;;;;;;4993390;28;20644;-56
2021/08/23 04:47:30;;;;;;;8.57;7.70;;;;;;;;;;4992276;28;20218;-56
2021/08/23 04:49:56;;;;;;;11.65;7.60;;;;;;;;;;4989279;28;20215;-56
2021/08/23 04:52:22;;;;;;;9.85;7.75;;;;;;;;;;4990388;28;20684;-56
2021/08/23 04:54:47;;;;;;;11.88;8.30;;;;;;;;;;4980261;28;20522;-56
2021/08/23 04:57:12;;;;;;;9.98;7.93;;;;;;;;;;4988237;28;20184;-56
2021/08/23 04:59:38;;;;;;;9.27;7.40;;;;;;;;;;4989673;28;20291;-56
2021/08/23 05:02:03;;;;;;;12.57;8.15;;;;;;;;;;4988733;28;20331;-56
2021/08/23 05:04:28;;;;;;;9.88;7.82;;;;;;;;;;4993235;28;20254;-55
2021/08/23 05:06:53;;;;;;;11.77;8.40;;;;;;;;;;4982804;28;20184;-56
2021/08/23 05:09:18;;;;;;;11.35;7.68;;;;;;;;;;4988886;28;20207;-57
2021/08/23 05:11:44;;;;;;;12.63;8.73;;;;;;;;;;4990828;28;20659;-56
2021/08/23 05:14:09;;;;;;;11.70;6.80;;;;;;;;;;4990335;28;20181;-56
2021/08/23 05:16:35;;;;;;;9.55;7.47;;;;;;;;;;4978320;28;20215;-56
2021/08/23 05:19:00;;;;;;;19.85;8.15;;;;;;;;;;4991652;28;20184;-56
2021/08/23 05:21:25;;;;;;;9.68;6.97;;;;;;;;;;4983358;28;20286;-56
2021/08/23 05:23:50;;;;;;;10.93;6.95;;;;;;;;;;4985713;28;20188;-56
2021/08/23 05:26:15;;;;;;;13.75;6.50;;;;;;;;;;4971793;28;20275;-55
2021/08/23 05:28:41;;;;;;;7.72;6.15;;;;;;;;;;4974966;28;21742;-56
2021/08/23 05:31:06;;;;;;;10.68;5.60;;;;;;;;;;4986107;28;20671;-56
2021/08/23 05:33:31;;;;;;;7.57;5.70;;;;;;;;;;4989707;28;20180;-56
2021/08/23 05:35:56;;;;;;;8.80;5.40;;;;;;;;;;4974209;28;20197;-56
2021/08/23 05:38:21;;;;;;;10.35;4.65;;;;;;;;;;5003821;28;20235;-59
2021/08/23 05:40:46;;;;;;;6.82;4.05;;;;;;;;;;4977992;28;20208;-55
2021/08/23 05:43:12;;;;;;;5.57;3.97;;;;;;;;;;4983705;28;20271;-56
2021/08/23 05:45:37;;;;;;;4.07;3.67;;;;;;;;;;4991947;28;20454;-55
2021/08/23 05:48:02;;;;;;;4.75;3.65;;;;;;;;;;4983973;28;20184;-56
2021/08/23 05:50:28;;;;;;;4.45;3.58;;;;;;;;;;4991097;28;20211;-57
2021/08/23 05:52:53;;;;;;;5.15;3.45;;;;;;;;;;4988264;28;20176;-56
2021/08/23 05:55:18;;;;;;;3.42;3.10;;;;;;;;;;4986710;28;20181;-56
2021/08/23 05:57:44;;;;;;;4.25;3.45;;;;;;;;;;4989073;28;20527;-55
2021/08/23 06:00:10;;;;;;;4.28;3.60;;;;;;;;;;4992599;28;20218;-56
2021/08/23 06:02:35;;;;;;;6.18;3.47;;;;;;;;;;4990749;28;20180;-55
2021/08/23 06:05:00;;;;;;;6.68;3.55;;;;;;;;;;4991179;28;20775;-56
2021/08/23 06:07:25;;;;;;;3.80;3.13;;;;;;;;;;4991435;28;20184;-56
2021/08/23 06:09:51;;;;;;;4.72;2.53;;;;;;;;;;4982488;28;20287;-56
2021/08/23 06:12:16;;;;;;;4.68;2.72;;;;;;;;;;4990777;28;20259;-56
2021/08/23 06:14:41;;;;;;;3.63;2.72;;;;;;;;;;4992231;28;20175;-56
2021/08/23 06:17:07;;;;;;;3.72;2.95;;;;;;;;;;4990751;28;20176;-56
2021/08/23 06:19:32;;;;;;;4.07;2.40;;;;;;;;;;4988048;28;20188;-56
2021/08/23 06:21:57;;;;;;;3.15;2.85;;;;;;;;;;4988405;28;20637;-55
2021/08/23 06:24:23;;;;;;;3.00;2.80;;;;;;;;;;4982302;28;20253;-56
2021/08/23 06:26:48;;;;;;;3.55;2.63;;;;;;;;;;4981672;28;20424;-56
2021/08/23 06:29:13;;;;;;;3.60;2.95;;;;;;;;;;4986087;28;20716;-57
2021/08/23 06:31:39;;;;;;;3.50;2.83;;;;;;;;;;4993051;28;20200;-56
2021/08/23 06:34:04;;;;;;;6.75;3.10;;;;;;;;;;4989823;28;20263;-55
2021/08/23 06:36:31;;;;;;;6.03;3.47;;;;;;;;;;4982125;28;20271;-56
2021/08/23 06:38:56;;;;;;;4.53;3.67;;;;;;;;;;4982309;28;20180;-56
2021/08/23 06:41:22;;;;;;;4.93;4.28;;;;;;;;;;4985983;28;20674;-56
2021/08/23 06:43:47;;;;;;;5.57;4.93;;;;;;;;;;4986837;28;20266;-56
2021/08/23 06:46:13;;;;;;;6.65;5.70;;;;;;;;;;4990177;28;20181;-55
2021/08/23 06:48:38;;;;;;;8.13;6.20;;;;;;;;;;4986692;28;20622;-56
2021/08/23 06:51:03;;;;;;;11.05;6.70;;;;;;;;;;4990722;28;20657;-56
2021/08/23 06:53:28;;;;;;;10.88;6.07;;;;;;;;;;4984952;28;20700;-56
2021/08/23 06:55:54;;;;;;;7.13;6.20;;;;;;;;;;4987444;28;20176;-56
2021/08/23 06:58:19;;;;;;;9.60;5.72;;;;;;;;;;4983879;28;20172;-56
2021/08/23 07:00:44;;;;;;;11.40;5.90;;;;;;;;;;4991805;28;20733;-55
2021/08/23 07:03:09;;;;;;;6.80;5.70;;;;;;;;;;4982825;28;20192;-56
2021/08/23 07:05:34;;;;;;;7.45;6.13;;;;;;;;;;4991275;28;20176;-56
2021/08/23 07:08:00;;;;;;;8.13;6.00;;;;;;;;;;4990008;28;20211;-56
2021/08/23 07:10:25;;;;;;;8.25;5.78;;;;;;;;;;4988617;28;20292;-57
2021/08/23 07:12:50;;;;;;;9.55;5.25;;;;;;;;;;4988646;28;20210;-56
2021/08/23 07:15:15;;;;;;;8.35;5.75;;;;;;;;;;4994004;28;20233;-56
2021/08/23 07:17:40;;;;;;;9.00;5.70;;;;;;;;;;4982587;28;20216;-57
2021/08/23 07:20:06;;;;;;;9.60;6.00;;;;;;;;;;4980558;28;20200;-56
2021/08/23 07:22:31;;;;;;;11.43;5.70;;;;;;;;;;4986442;28;20270;-54
2021/08/23 07:24:56;;;;;;;9.82;6.00;;;;;;;;;;4988011;28;20211;-56
2021/08/23 07:27:21;;;;;;;7.72;6.00;;;;;;;;;;4990101;28;20670;-56
2021/08/23 07:29:47;;;;;;;12.32;6.43;;;;;;;;;;4989816;28;20207;-56
2021/08/23 07:32:12;;;;;;;7.85;5.60;;;;;;;;;;4986862;28;20183;-57
2021/08/23 07:34:38;;;;;;;6.68;5.57;;;;;;;;;;4974504;28;20270;-56
2021/08/23 07:37:03;;;;;;;7.55;5.10;;;;;;;;;;4980600;28;20187;-55
2021/08/23 07:39:28;;;;;;;7.38;5.85;;;;;;;;;;4987216;28;20188;-54
2021/08/23 07:41:53;;;;;;;9.00;5.35;;;;;;;;;;4991955;28;20188;-55
2021/08/23 07:44:19;;;;;;;6.03;5.25;;;;;;;;;;4975293;28;20169;-54
2021/08/23 07:46:44;;;;;;;6.82;5.40;;;;;;;;;;4998242;28;20215;-54
2021/08/23 07:49:09;;;;;;;6.43;5.50;;;;;;;;;;4990223;28;20204;-56
2021/08/23 07:51:34;;;;;;;5.45;4.95;;;;;;;;;;4988077;28;20192;-54
2021/08/23 07:54:00;;;;;;;7.40;5.43;;;;;;;;;;4994146;28;20184;-54
2021/08/23 07:56:25;;;;;;;10.07;5.75;;;;;;;;;;4992782;28;20176;-55
2021/08/23 07:58:50;;;;;;;8.95;5.53;;;;;;;;;;4993394;28;20212;-56
2021/08/23 08:01:15;;;;;;;6.32;5.45;;;;;;;;;;4996310;28;20215;-54
2021/08/23 08:03:40;;;;;;;6.00;5.40;;;;;;;;;;4986201;28;20180;-55
2021/08/23 08:06:06;;;;;;;8.93;5.50;;;;;;;;;;4993911;28;20188;-56
2021/08/23 08:08:31;;;;;;;6.40;5.30;;;;;;;;;;4994391;28;20168;-56
2021/08/23 08:10:57;;;;;;;7.95;5.32;;;;;;;;;;4992085;28;20212;-57
2021/08/23 08:13:22;;;;;;;7.78;5.15;;;;;;;;;;4987306;28;20707;-58
2021/08/23 08:15:47;;;;;;;5.82;5.10;;;;;;;;;;4997939;28;20179;-59
2021/08/23 08:18:13;;;;;;;11.40;5.13;;;;;;;;;;4983274;28;20216;-57
2021/08/23 08:20:38;;;;;;;5.22;4.72;;;;;;;;;;4979818;28;20565;-58
2021/08/23 08:23:03;;;;;;;8.40;5.40;;;;;;;;;;4993952;28;20239;-59
2021/08/23 08:25:30;;;;;;;5.60;5.10;;;;;;;;;;4993604;28;20183;-59
2021/08/23 08:27:55;;;;;;;5.40;4.78;;;;;;;;;;4985775;28;20180;-57
2021/08/23 08:30:20;;;;;;;6.15;4.60;;;;;;;;;;4991974;28;20699;-57
2021/08/23 08:32:45;;;;;;;6.53;4.30;;;;;;;;;;4986648;28;20195;-57
2021/08/23 08:35:11;;;;;;;5.82;4.88;;;;;;;;;;4990147;28;20581;-57
2021/08/23 08:37:37;;;;;;;6.35;4.88;;;;;;;;;;4974146;28;20641;-58
2021/08/23 08:40:03;;;;;;;5.13;4.65;;;;;;;;;;4977000;28;20200;-60
2021/08/23 08:42:28;;;;;;;5.93;4.80;;;;;;;;;;4985408;28;20258;-59
2021/08/23 08:44:53;;;;;;;5.57;4.13;;;;;;;;;;4993480;28;20169;-57
2021/08/23 08:47:19;;;;;;;7.50;4.55;;;;;;;;;;4989819;28;20185;-56
2021/08/23 08:49:45;;;;;;;11.50;4.50;;;;;;;;;;4988555;28;20247;-56
2021/08/23 08:52:11;;;;;;;6.35;4.28;;;;;;;;;;4991988;28;20168;-55
2021/08/23 08:54:37;;;;;;;6.13;4.10;;;;;;;;;;4993366;28;20259;-56
2021/08/23 08:57:03;;;;;;;5.88;4.13;;;;;;;;;;4983649;28;20177;-58
2021/08/23 08:59:29;;;;;;;6.47;4.30;;;;;;;;;;4991739;28;20235;-58
2021/08/23 09:01:54;;;;;;;5.57;4.00;;;;;;;;;;4999447;28;20666;-58
2021/08/23 09:04:26;;;;;;;5.00;4.03;;;;;;;;;;4988812;28;20176;-57
2021/08/23 09:06:53;;;;;;;3.63;3.33;;;;;;;;;;4985062;28;20463;-57
2021/08/23 09:09:21;;;;;;;4.28;3.45;;;;;;;;;;4992834;28;20258;-57
2021/08/23 09:11:55;;;;;;;4.22;3.83;;;;;;;;;;4992592;28;20188;-55
2021/08/23 09:14:20;;;;;;;4.43;3.78;;;;;;;;;;4993066;28;20537;-55
2021/08/23 09:16:45;;;;;;;6.65;3.60;;;;;;;;;;4999446;28;20187;-55
2021/08/23 09:19:27;;;;;;;5.70;3.97;;;;;;;;;;4987090;28;20180;-55
2021/08/23 09:22:03;;;;;;;4.35;3.30;;;;;;;;;;4991477;28;20692;-55
2021/08/23 09:24:32;;;;;;;6.03;3.25;;;;;;;;;;4991705;28;20180;-54
2021/08/23 09:27:01;;;;;;;4.60;3.40;;;;;;;;;;4990963;28;20180;-56
2021/08/23 09:29:26;;;;;;;4.07;3.20;;;;;;;;;;4975424;28;20212;-55
2021/08/23 09:31:57;;;;;;;4.47;3.30;;;;;;;;;;4990544;28;20191;-55
2021/08/23 09:34:22;;;;;;;5.78;3.70;;;;;;;;;;4986938;28;20986;-55
2021/08/23 09:36:55;;;;;;;3.97;3.58;;;;;;;;;;4980870;28;20267;-55
2021/08/23 09:39:24;;;;;;;5.25;3.47;;;;;;;;;;4991821;28;20176;-53
2021/08/23 09:41:50;;;;;;;4.38;3.42;;;;;;;;;;4990806;28;20180;-57
2021/08/23 09:44:15;;;;;;;5.20;3.15;;;;;;;;;;4983122;28;20190;-54
2021/08/23 09:46:43;;;;;;;4.53;3.50;;;;;;;;;;4995468;28;20270;-54
2021/08/23 09:49:10;;;;;;;4.93;3.20;;;;;;;;;;4989782;28;20996;-56
2021/08/23 09:51:37;;;;;;;5.05;2.97;;;;;;;;;;4991029;28;20572;-54
2021/08/23 09:54:10;;;;;;;4.05;2.58;;;;;;;;;;4990280;28;20227;-55
2021/08/23 09:56:42;;;;;;;3.67;2.70;;;;;;;;;;4991414;28;20183;-56
2021/08/23 09:59:08;;;;;;;3.90;2.65;;;;;;;;;;4974542;28;20641;-57
2021/08/23 10:01:35;;;;;;;4.20;2.40;;;;;;;;;;4976867;28;20665;-55
2021/08/23 10:04:02;;;;;;;4.15;2.63;;;;;;;;;;4983503;28;20223;-55
2021/08/23 10:06:28;;;;;;;4.43;2.63;;;;;;;;;;4977408;28;20176;-56
2021/08/23 10:08:53;;;;;;;3.10;2.70;;;;;;;;;;4990263;28;20175;-56
2021/08/23 10:11:19;;;;;;;5.55;2.60;;;;;;;;;;4990580;28;20219;-55
2021/08/23 10:13:44;;;;;;;4.38;2.67;;;;;;;;;;4990555;28;20180;-56
2021/08/23 10:16:09;;;;;;;3.33;2.40;;;;;;;;;;4989753;28;20199;-58
2021/08/23 10:18:34;;;;;;;2.97;2.50;;;;;;;;;;4990082;28;20188;-57
2021/08/23 10:21:00;;;;;;;4.82;2.45;;;;;;;;;;4980685;28;20458;-58
2021/08/23 10:23:25;;;;;;;5.28;2.30;;;;;;;;;;4996180;28;20216;-53
2021/08/23 10:25:50;;;;;;;5.35;2.25;;;;;;;;;;4983977;28;20660;-55
2021/08/23 10:28:20;;;;;;;2.97;2.47;;;;;;;;;;4987877;28;20184;-54
2021/08/23 10:30:45;;;;;;;7.05;2.10;;;;;;;;;;4987066;28;20735;-55
2021/08/23 10:33:10;;;;;;;3.50;1.88;;;;;;;;;;4988372;28;20192;-55
2021/08/23 10:35:44;;;;;;;1.83;1.63;;;;;;;;;;4982770;28;20185;-55
2021/08/23 10:38:14;;;;;;;5.00;2.00;;;;;;;;;;4979972;28;20180;-55
2021/08/23 10:40:39;;;;;;;3.03;1.90;;;;;;;;;;4987148;28;20258;-55
2021/08/23 10:43:14;;;;;;;4.10;1.85;;;;;;;;;;4990595;28;20602;-55
2021/08/23 10:45:40;;;;;;;1.90;1.45;;;;;;;;;;4989082;28;20259;-55
2021/08/23 10:48:12;;;;;;;4.55;1.75;;;;;;;;;;4986582;28;20293;-55
2021/08/23 10:50:37;;;;;;;1.73;1.60;;;;;;;;;;4989544;28;20215;-55
2021/08/23 10:53:09;;;;;;;4.13;1.70;;;;;;;;;;4990680;28;20190;-55
2021/08/23 10:55:37;;;;;;;2.30;1.77;;;;;;;;;;4989391;28;20458;-55
2021/08/23 10:58:03;;;;;;;4.10;2.10;;;;;;;;;;4989421;28;20234;-55
2021/08/23 11:00:34;;;;;;;2.25;1.63;;;;;;;;;;4984960;28;20639;-55
2021/08/23 11:02:59;;;;;;;2.28;1.90;;;;;;;;;;4988837;28;20258;-55
2021/08/23 11:05:24;;;;;;;4.22;1.83;;;;;;;;;;4989715;28;20259;-55
2021/08/23 11:07:58;;;;;;;2.72;1.90;;;;;;;;;;4988737;28;20236;-56
2021/08/23 11:10:24;;;;;;;2.28;1.58;;;;;;;;;;4990378;28;20262;-56
2021/08/23 11:12:50;;;;;;;1.38;1.27;;;;;;;;;;4990559;28;20656;-56
2021/08/23 11:15:16;;;;;;;3.20;1.45;;;;;;;;;;4990061;28;20176;-56
2021/08/23 11:17:46;;;;;;;1.38;1.20;;;;;;;;;;4991308;28;20184;-55
2021/08/23 11:20:11;;;;;;;2.33;1.40;;;;;;;;;;4986295;28;20680;-55
2021/08/23 11:22:37;;;;;;;1.27;0.98;;;;;;;;;;4986341;28;20187;-56
2021/08/23 11:25:02;;;;;;;2.83;1.33;;;;;;;;;;4989274;28;20180;-56
2021/08/23 11:27:28;;;;;;;1.40;1.10;;;;;;;;;;4990138;28;20675;-55
2021/08/23 11:29:54;;;;;;;2.63;1.30;;;;;;;;;;4989762;28;20204;-55
2021/08/23 11:32:23;;;;;;;1.85;1.20;;;;;;;;;;4990138;28;20186;-55
2021/08/23 11:34:50;;;;;;;2.97;1.08;;;;;;;;;;4985857;28;20266;-56
2021/08/23 11:37:15;;;;;;;3.05;1.05;;;;;;;;;;4988367;28;20168;-56
2021/08/23 11:39:41;;;;;;;1.20;1.10;;;;;;;;;;4989689;28;20723;-56
2021/08/23 11:42:06;;;;;;;1.70;1.05;;;;;;;;;;4987447;28;20742;-56
2021/08/23 11:44:32;;;;;;;1.13;1.00;;;;;;;;;;4983422;28;20646;-59
2021/08/23 11:46:59;;;;;;;1.20;1.10;;;;;;;;;;4989222;28;20176;-57
2021/08/23 11:49:31;;;;;;;1.88;1.10;;;;;;;;;;4972534;28;20197;-55
2021/08/23 11:51:56;;;;;;;3.60;1.20;;;;;;;;;;4968950;28;20727;-55
2021/08/23 11:54:22;;;;;;;1.35;1.17;;;;;;;;;;4984330;28;20180;-54
2021/08/23 11:56:47;;;;;;;1.95;1.10;;;;;;;;;;4989076;28;20176;-55
2021/08/23 11:59:13;;;;;;;2.80;1.10;;;;;;;;;;4989531;28;20620;-58
2021/08/23 12:01:38;;;;;;;4.35;1.50;;;;;;;;;;4988761;28;20212;-55
2021/08/23 12:04:04;;;;;;;3.55;1.70;;;;;;;;;;4985967;28;20188;-55
2021/08/23 12:06:33;;;;;;;1.05;0.98;;;;;;;;;;4985125;28;20187;-56
2021/08/23 12:08:59;;;;;;;3.03;0.93;;;;;;;;;;4990037;28;20178;-56
2021/08/23 12:11:25;;;;;;;1.70;0.93;;;;;;;;;;4989475;28;20204;-58
2021/08/23 12:13:50;;;;;;;1.00;0.90;;;;;;;;;;4978885;28;20176;-55
2021/08/23 12:16:20;;;;;;;1.17;1.00;;;;;;;;;;4979968;28;20778;-55
2021/08/23 12:18:45;;;;;;;1.02;1.02;;;;;;;;;;4986801;28;20235;-56
2021/08/23 12:21:18;;;;;;;1.60;1.13;;;;;;;;;;4985602;28;20196;-56
2021/08/23 12:23:46;;;;;;;1.27;1.15;;;;;;;;;;4985542;28;20222;-57
2021/08/23 12:26:14;;;;;;;1.25;1.15;;;;;;;;;;4989253;28;20192;-56
2021/08/23 12:28:50;;;;;;;1.75;1.20;;;;;;;;;;4992043;28;20608;-57
2021/08/23 12:31:15;;;;;;;1.20;1.10;;;;;;;;;;4992294;28;20210;-57
2021/08/23 12:33:40;;;;;;;5.55;1.40;;;;;;;;;;4989258;28;20195;-56
2021/08/23 12:36:06;;;;;;;1.30;1.10;;;;;;;;;;4990688;28;20192;-56
2021/08/23 12:38:31;;;;;;;1.85;1.00;;;;;;;;;;4983718;28;20221;-56
2021/08/23 12:40:56;;;;;;;2.80;1.20;;;;;;;;;;4986272;28;20290;-56
2021/08/23 12:43:21;;;;;;;3.83;1.20;;;;;;;;;;4987409;28;21074;-55
2021/08/23 12:45:46;;;;;;;1.50;1.25;;;;;;;;;;4972937;28;20412;-56
2021/08/23 12:48:11;;;;;;;3.53;1.15;;;;;;;;;;4983964;28;20184;-57
2021/08/23 12:50:37;;;;;;;1.90;1.17;;;;;;;;;;4982017;28;20254;-55
2021/08/23 12:53:02;;;;;;;1.37;1.27;;;;;;;;;;4982697;28;20412;-54
2021/08/23 12:55:27;;;;;;;1.83;1.50;;;;;;;;;;4975903;28;20413;-55
2021/08/23 12:57:52;;;;;;;1.60;1.20;;;;;;;;;;4980375;28;20432;-55
2021/08/23 13:00:17;;;;;;;1.87;1.40;;;;;;;;;;4986639;28;20537;-55
2021/08/23 13:02:43;;;;;;;3.30;1.58;;;;;;;;;;4991697;28;20419;-56
2021/08/23 13:05:08;;;;;;;1.63;1.42;;;;;;;;;;4990063;28;20735;-56
2021/08/23 13:07:34;;;;;;;1.65;1.55;;;;;;;;;;4984057;28;20602;-55
2021/08/23 13:09:59;;;;;;;6.72;1.60;;;;;;;;;;4991222;28;20212;-56
2021/08/23 13:12:24;;;;;;;2.78;1.58;;;;;;;;;;4990822;28;20188;-56
2021/08/23 13:14:49;;;;;;;3.28;2.00;;;;;;;;;;4991880;28;20210;-56
2021/08/23 13:17:15;;;;;;;4.05;1.90;;;;;;;;;;4982306;28;20236;-55
2021/08/23 13:19:40;;;;;;;2.88;1.83;;;;;;;;;;4987083;28;20592;-54
2021/08/23 13:22:05;;;;;;;4.00;2.17;;;;;;;;;;4988252;28;20176;-54
2021/08/23 13:24:31;;;;;;;2.78;2.30;;;;;;;;;;4978722;28;20227;-54
2021/08/23 13:26:56;;;;;;;3.30;2.10;;;;;;;;;;4980793;28;20188;-55
2021/08/23 13:29:21;;;;;;;3.88;2.17;;;;;;;;;;4987728;28;20235;-55
2021/08/23 13:31:46;;;;;;;3.57;2.17;;;;;;;;;;4991762;28;20687;-55
2021/08/23 13:34:12;;;;;;;2.63;2.27;;;;;;;;;;4981354;28;20459;-56
2021/08/23 13:36:37;;;;;;;2.38;2.17;;;;;;;;;;4982215;28;20809;-55
2021/08/23 13:39:02;;;;;;;2.47;2.27;;;;;;;;;;4986870;28;20180;-56
2021/08/23 13:41:28;;;;;;;3.37;2.40;;;;;;;;;;4988706;28;20965;-54
2021/08/23 13:43:53;;;;;;;3.30;2.30;;;;;;;;;;4980726;28;20430;-55
2021/08/23 13:46:18;;;;;;;5.13;2.75;;;;;;;;;;4971773;28;20177;-55
2021/08/23 13:48:44;;;;;;;4.00;2.90;;;;;;;;;;4974125;28;20207;-57
2021/08/23 13:51:09;;;;;;;5.03;2.42;;;;;;;;;;4988625;28;20471;-56
2021/08/23 13:53:34;;;;;;;3.88;2.55;;;;;;;;;;4986071;28;20293;-55
2021/08/23 13:55:59;;;;;;;4.75;2.72;;;;;;;;;;4985274;28;20179;-55
2021/08/23 13:58:25;;;;;;;2.70;2.40;;;;;;;;;;4987080;28;20165;-55
2021/08/23 14:00:50;;;;;;;4.07;2.42;;;;;;;;;;4983219;28;20212;-56
2021/08/23 14:03:15;;;;;;;2.97;2.35;;;;;;;;;;4990607;28;20184;-56
2021/08/23 14:05:41;;;;;;;3.50;2.47;;;;;;;;;;4999186;28;20180;-58
2021/08/23 14:08:06;;;;;;;3.37;2.50;;;;;;;;;;4986641;28;20490;-58
2021/08/23 14:10:33;;;;;;;2.97;2.23;;;;;;;;;;4985647;28;20478;-57
2021/08/23 14:12:58;;;;;;;3.47;2.13;;;;;;;;;;4990059;28;20480;-57
2021/08/23 14:15:23;;;;;;;2.60;2.20;;;;;;;;;;4985149;28;20637;-57
2021/08/23 14:17:48;;;;;;;3.88;2.38;;;;;;;;;;4984381;28;20504;-56
2021/08/23 14:20:14;;;;;;;2.70;1.95;;;;;;;;;;4991596;28;20235;-56
2021/08/23 14:22:40;;;;;;;7.25;2.65;;;;;;;;;;4987270;28;20268;-57
2021/08/23 14:25:05;;;;;;;2.67;2.45;;;;;;;;;;4990075;28;20562;-57
2021/08/23 14:27:31;;;;;;;4.43;2.33;;;;;;;;;;4988795;28;20184;-57
2021/08/23 14:29:56;;;;;;;3.55;2.00;;;;;;;;;;4986326;28;20744;-57